Bissett, Canada
Current Conditions -  °F | °C
As of 8:00 PM on Monday 22 Dec 2014 (Local Time) from CYRL Reporting Station
Freezing Drizzle Freezing Drizzle  
Wind Chill: 30°   Ceiling: 400
Heat Index: 30°   Visibility: 3mi
Dew Point: 30°   Wind: 3mph
Humidity: 100%   Direction: 40°NE
Pressure: 29.81"   Gusts: NA
Location:  51.02°N, 95.67°W
Report Text: CYRL 230200Z 04003KT 3SM -FZDZ BR OVC004 M01/M01 A2981 RMK FG3ST5 SLP114
Loading
Personal Weather Stations






























Interactive Weather Map New forecast layout! Learn more

10-Day Weather Forecast

Advertisements
Track Severe Weather on mobile